sensor_id;sensor_type;location;lat;lon;timestamp;pressure;altitude;pressure_sealevel;temperature;humidity
11856;BME280;5987;53.140;8.904;2023-04-26T00:02:57;101617.78;;;2.89;100.00
11856;BME280;5987;53.140;8.904;2023-04-26T00:06:02;101621.28;;;2.96;100.00
11856;BME280;5987;53.140;8.904;2023-04-26T00:09:11;101614.34;;;2.94;100.00
11856;BME280;5987;53.140;8.904;2023-04-26T00:12:15;101626.44;;;2.88;100.00
11856;BME280;5987;53.140;8.904;2023-04-26T00:15:18;101616.00;;;2.84;100.00
11856;BME280;5987;53.140;8.904;2023-04-26T00:18:22;101619.44;;;2.81;100.00
11856;BME280;5987;53.140;8.904;2023-04-26T00:21:25;101615.97;;;2.78;100.00
11856;BME280;5987;53.140;8.904;2023-04-26T00:24:31;101623.66;;;2.70;100.00
11856;BME280;5987;53.140;8.904;2023-04-26T00:27:35;101631.44;;;2.67;100.00
11856;BME280;5987;53.140;8.904;2023-04-26T00:30:38;101631.38;;;2.61;100.00
11856;BME280;5987;53.140;8.904;2023-04-26T00:33:50;101625.31;;;2.58;100.00
11856;BME280;5987;53.140;8.904;2023-04-26T00:36:54;101626.13;;;2.54;100.00
11856;BME280;5987;53.140;8.904;2023-04-26T00:39:59;101628.72;;;2.54;100.00
11856;BME280;5987;53.140;8.904;2023-04-26T00:43:04;101625.25;;;2.51;100.00
11856;BME280;5987;53.140;8.904;2023-04-26T00:46:08;101632.94;;;2.43;100.00
11856;BME280;5987;53.140;8.904;2023-04-26T00:49:16;101632.06;;;2.43;100.00
11856;BME280;5987;53.140;8.904;2023-04-26T00:52:21;101629.41;;;2.35;100.00
11856;BME280;5987;53.140;8.904;2023-04-26T00:55:27;101626.84;;;2.38;100.00
11856;BME280;5987;53.140;8.904;2023-04-26T00:58:31;101631.16;;;2.39;100.00
11856;BME280;5987;53.140;8.904;2023-04-26T01:01:35;101624.28;;;2.41;100.00
11856;BME280;5987;53.140;8.904;2023-04-26T01:04:39;101635.50;;;2.38;100.00
11856;BME280;5987;53.140;8.904;2023-04-26T01:07:45;101632.84;;;2.34;100.00
11856;BME280;5987;53.140;8.904;2023-04-26T01:10:52;101643.22;;;2.34;100.00
11856;BME280;5987;53.140;8.904;2023-04-26T01:13:56;101646.63;;;2.30;100.00
11856;BME280;5987;53.140;8.904;2023-04-26T01:17:01;101647.47;;;2.27;100.00
11856;BME280;5987;53.140;8.904;2023-04-26T01:20:08;101650.09;;;2.30;100.00
11856;BME280;5987;53.140;8.904;2023-04-26T01:23:14;101654.41;;;2.30;100.00
11856;BME280;5987;53.140;8.904;2023-04-26T01:26:19;101648.41;;;2.35;100.00
11856;BME280;5987;53.140;8.904;2023-04-26T01:29:22;101656.25;;;2.43;100.00
11856;BME280;5987;53.140;8.904;2023-04-26T01:32:26;101657.16;;;2.45;100.00
11856;BME280;5987;53.140;8.904;2023-04-26T01:35:30;101658.06;;;2.50;100.00
11856;BME280;5987;53.140;8.904;2023-04-26T01:38:36;101653.75;;;2.51;100.00
11856;BME280;5987;53.140;8.904;2023-04-26T01:41:40;101653.81;;;2.57;100.00
11856;BME280;5987;53.140;8.904;2023-04-26T01:44:43;101642.66;;;2.66;100.00
11856;BME280;5987;53.140;8.904;2023-04-26T01:47:47;101642.72;;;2.73;100.00
11856;BME280;5987;53.140;8.904;2023-04-26T01:50:51;101641.81;;;2.70;100.00
11856;BME280;5987;53.140;8.904;2023-04-26T01:53:56;101640.94;;;2.65;100.00
11856;BME280;5987;53.140;8.904;2023-04-26T01:57:00;101646.16;;;2.71;100.00
11856;BME280;5987;53.140;8.904;2023-04-26T02:00:06;101636.59;;;2.62;100.00
11856;BME280;5987;53.140;8.904;2023-04-26T02:03:11;101644.41;;;2.70;100.00
11856;BME280;5987;53.140;8.904;2023-04-26T02:06:14;101640.13;;;2.72;100.00
11856;BME280;5987;53.140;8.904;2023-04-26T02:09:19;101647.91;;;2.72;100.00
11856;BME280;5987;53.140;8.904;2023-04-26T02:12:23;101640.97;;;2.71;100.00
11856;BME280;5987;53.140;8.904;2023-04-26T02:15:27;101650.41;;;2.63;100.00
11856;BME280;5987;53.140;8.904;2023-04-26T02:18:30;101651.19;;;2.52;100.00
11856;BME280;5987;53.140;8.904;2023-04-26T02:21:53;101655.47;;;2.50;100.00
11856;BME280;5987;53.140;8.904;2023-04-26T02:24:58;101647.63;;;2.43;100.00
11856;BME280;5987;53.140;8.904;2023-04-26T02:28:02;101649.28;;;2.37;100.00
11856;BME280;5987;53.140;8.904;2023-04-26T02:31:05;101652.69;;;2.32;100.00
11856;BME280;5987;53.140;8.904;2023-04-26T02:34:09;101648.31;;;2.25;100.00
11856;BME280;5987;53.140;8.904;2023-04-26T02:37:13;101659.50;;;2.23;100.00
11856;BME280;5987;53.140;8.904;2023-04-26T02:40:18;101657.78;;;2.22;100.00
11856;BME280;5987;53.140;8.904;2023-04-26T02:43:22;101662.16;;;2.27;100.00
11856;BME280;5987;53.140;8.904;2023-04-26T02:46:26;101660.38;;;2.22;100.00
11856;BME280;5987;53.140;8.904;2023-04-26T02:49:30;101661.16;;;2.15;100.00
11856;BME280;5987;53.140;8.904;2023-04-26T02:52:34;101655.06;;;2.10;100.00
11856;BME280;5987;53.140;8.904;2023-04-26T02:55:39;101653.28;;;2.06;100.00
11856;BME280;5987;53.140;8.904;2023-04-26T02:58:42;101657.66;;;2.12;100.00
11856;BME280;5987;53.140;8.904;2023-04-26T03:01:46;101656.81;;;2.13;100.00
11856;BME280;5987;53.140;8.904;2023-04-26T03:04:50;101656.03;;;2.20;100.00
11856;BME280;5987;53.140;8.904;2023-04-26T03:07:55;101669.00;;;2.23;100.00
11856;BME280;5987;53.140;8.904;2023-04-26T03:11:00;101658.59;;;2.15;100.00
11856;BME280;5987;53.140;8.904;2023-04-26T03:14:03;101669.03;;;2.25;100.00
11856;BME280;5987;53.140;8.904;2023-04-26T03:17:07;101663.78;;;2.18;100.00
11856;BME280;5987;53.140;8.904;2023-04-26T03:20:11;101668.22;;;2.30;100.00
11856;BME280;5987;53.140;8.904;2023-04-26T03:23:15;101660.41;;;2.26;100.00
11856;BME280;5987;53.140;8.904;2023-04-26T03:26:20;101664.75;;;2.27;100.00
11856;BME280;5987;53.140;8.904;2023-04-26T03:29:24;101664.78;;;2.31;100.00
11856;BME280;5987;53.140;8.904;2023-04-26T03:32:28;101666.47;;;2.29;100.00
11856;BME280;5987;53.140;8.904;2023-04-26T03:35:31;101667.34;;;2.27;100.00
11856;BME280;5987;53.140;8.904;2023-04-26T03:38:35;101657.84;;;2.29;100.00
11856;BME280;5987;53.140;8.904;2023-04-26T03:41:40;101663.97;;;2.34;100.00
11856;BME280;5987;53.140;8.904;2023-04-26T03:44:44;101675.16;;;2.33;100.00
11856;BME280;5987;53.140;8.904;2023-04-26T03:47:47;101661.41;;;2.38;100.00
11856;BME280;5987;53.140;8.904;2023-04-26T03:50:51;101663.97;;;2.34;100.00
11856;BME280;5987;53.140;8.904;2023-04-26T03:53:55;101663.13;;;2.38;100.00
11856;BME280;5987;53.140;8.904;2023-04-26T03:57:00;101651.91;;;2.39;100.00
11856;BME280;5987;53.140;8.904;2023-04-26T04:00:05;101656.19;;;2.34;100.00
11856;BME280;5987;53.140;8.904;2023-04-26T04:03:11;101663.00;;;2.24;100.00
11856;BME280;5987;53.140;8.904;2023-04-26T04:06:15;101656.03;;;2.20;100.00
11856;BME280;5987;53.140;8.904;2023-04-26T04:09:19;101657.66;;;2.12;100.00
11856;BME280;5987;53.140;8.904;2023-04-26T04:12:24;101663.69;;;2.11;100.00
11856;BME280;5987;53.140;8.904;2023-04-26T04:15:28;101655.88;;;2.08;100.00
11856;BME280;5987;53.140;8.904;2023-04-26T04:18:31;101648.91;;;2.00;100.00
11856;BME280;5987;53.140;8.904;2023-04-26T04:21:35;101660.91;;;1.94;100.00
11856;BME280;5987;53.140;8.904;2023-04-26T04:24:39;101662.59;;;1.88;100.00
11856;BME280;5987;53.140;8.904;2023-04-26T04:27:45;101660.75;;;1.81;100.00
11856;BME280;5987;53.140;8.904;2023-04-26T04:30:49;101665.97;;;1.84;100.00
11856;BME280;5987;53.140;8.904;2023-04-26T04:33:53;101665.91;;;1.80;100.00
11856;BME280;5987;53.140;8.904;2023-04-26T04:36:57;101665.03;;;1.79;100.00
11856;BME280;5987;53.140;8.904;2023-04-26T04:40:01;101664.28;;;1.88;100.00
11856;BME280;5987;53.140;8.904;2023-04-26T04:43:06;101667.78;;;1.90;100.00
11856;BME280;5987;53.140;8.904;2023-04-26T04:46:10;101667.00;;;1.99;100.00
11856;BME280;5987;53.140;8.904;2023-04-26T04:49:14;101668.75;;;2.00;100.00
11856;BME280;5987;53.140;8.904;2023-04-26T04:52:20;101667.88;;;2.01;100.00
11856;BME280;5987;53.140;8.904;2023-04-26T04:55:24;101666.25;;;2.08;100.00
11856;BME280;5987;53.140;8.904;2023-04-26T04:58:29;101668.84;;;2.09;100.00
11856;BME280;5987;53.140;8.904;2023-04-26T05:01:33;101673.22;;;2.13;100.00
11856;BME280;5987;53.140;8.904;2023-04-26T05:04:38;101677.66;;;2.23;100.00
11856;BME280;5987;53.140;8.904;2023-04-26T05:07:42;101674.22;;;2.28;100.00
11856;BME280;5987;53.140;8.904;2023-04-26T05:10:46;101672.63;;;2.37;100.00
11856;BME280;5987;53.140;8.904;2023-04-26T05:13:51;101667.56;;;2.48;100.00
11856;BME280;5987;53.140;8.904;2023-04-26T05:16:54;101669.31;;;2.52;100.00
11856;BME280;5987;53.140;8.904;2023-04-26T05:19:59;101659.81;;;2.53;100.00
11856;BME280;5987;53.140;8.904;2023-04-26T05:23:07;101659.81;;;2.51;100.00
11856;BME280;5987;53.140;8.904;2023-04-26T05:26:15;101667.66;;;2.57;100.00
11856;BME280;5987;53.140;8.904;2023-04-26T05:29:20;101673.75;;;2.66;100.00
11856;BME280;5987;53.140;8.904;2023-04-26T05:32:24;101673.88;;;2.80;100.00
11856;BME280;5987;53.140;8.904;2023-04-26T05:35:28;101672.34;;;3.00;100.00
11856;BME280;5987;53.140;8.904;2023-04-26T05:38:32;101671.63;;;3.21;100.00
11856;BME280;5987;53.140;8.904;2023-04-26T05:41:36;101668.38;;;3.50;100.00
11856;BME280;5987;53.140;8.904;2023-04-26T05:44:41;101653.81;;;3.88;100.00
11856;BME280;5987;53.140;8.904;2023-04-26T05:47:44;101659.94;;;3.94;100.00
11856;BME280;5987;53.140;8.904;2023-04-26T05:50:49;101659.13;;;4.09;100.00
11856;BME280;5987;53.140;8.904;2023-04-26T05:53:53;101655.72;;;4.37;100.00
11856;BME280;5987;53.140;8.904;2023-04-26T05:56:58;101665.25;;;4.49;100.00
11856;BME280;5987;53.140;8.904;2023-04-26T06:00:05;101667.06;;;4.87;100.00
11856;BME280;5987;53.140;8.904;2023-04-26T06:03:10;101664.44;;;4.82;100.00
11856;BME280;5987;53.140;8.904;2023-04-26T06:06:15;101656.63;;;4.63;100.00
11856;BME280;5987;53.140;8.904;2023-04-26T06:09:19;101660.13;;;4.84;100.00
11856;BME280;5987;53.140;8.904;2023-04-26T06:12:23;101661.84;;;5.10;100.00
11856;BME280;5987;53.140;8.904;2023-04-26T06:15:28;101660.13;;;4.98;100.00
11856;BME280;5987;53.140;8.904;2023-04-26T06:18:33;101661.84;;;5.01;100.00
11856;BME280;5987;53.140;8.904;2023-04-26T06:21:36;101660.94;;;5.37;100.00
11856;BME280;5987;53.140;8.904;2023-04-26T06:24:40;101660.91;;;5.54;100.00
11856;BME280;5987;53.140;8.904;2023-04-26T06:27:44;101662.63;;;5.52;100.00
11856;BME280;5987;53.140;8.904;2023-04-26T06:30:49;101664.31;;;5.72;100.00
11856;BME280;5987;53.140;8.904;2023-04-26T06:33:53;101665.13;;;5.92;100.00
11856;BME280;5987;53.140;8.904;2023-04-26T06:36:57;101672.06;;;5.93;100.00
11856;BME280;5987;53.140;8.904;2023-04-26T06:40:02;101673.88;;;5.65;100.00
11856;BME280;5987;53.140;8.904;2023-04-26T06:43:06;101677.34;;;5.81;100.00
11856;BME280;5987;53.140;8.904;2023-04-26T06:46:11;101684.22;;;6.04;100.00
11856;BME280;5987;53.140;8.904;2023-04-26T06:49:14;101667.72;;;5.95;100.00
11856;BME280;5987;53.140;8.904;2023-04-26T06:52:18;101674.47;;;6.38;100.00
11856;BME280;5987;53.140;8.904;2023-04-26T06:55:23;101677.28;;;5.90;100.00
11856;BME280;5987;53.140;8.904;2023-04-26T06:58:27;101679.91;;;5.98;100.00
11856;BME280;5987;53.140;8.904;2023-04-26T07:01:33;101681.53;;;6.21;100.00
11856;BME280;5987;53.140;8.904;2023-04-26T07:04:37;101682.09;;;6.70;100.00
11856;BME280;5987;53.140;8.904;2023-04-26T07:07:42;101687.94;;;7.03;100.00
11856;BME280;5987;53.140;8.904;2023-04-26T07:10:47;101699.75;;;6.28;100.00
11856;BME280;5987;53.140;8.904;2023-04-26T07:13:50;101695.47;;;6.10;100.00
11856;BME280;5987;53.140;8.904;2023-04-26T07:16:56;101698.81;;;6.40;100.00
11856;BME280;5987;53.140;8.904;2023-04-26T07:19:59;101698.72;;;6.52;100.00
11856;BME280;5987;53.140;8.904;2023-04-26T07:23:03;101703.38;;;5.87;100.00
11856;BME280;5987;53.140;8.904;2023-04-26T07:26:09;101711.19;;;5.86;100.00
11856;BME280;5987;53.140;8.904;2023-04-26T07:29:13;101696.03;;;6.69;100.00
11856;BME280;5987;53.140;8.904;2023-04-26T07:32:18;101696.06;;;6.63;100.00
11856;BME280;5987;53.140;8.904;2023-04-26T07:35:22;101697.53;;;7.01;100.00
11856;BME280;5987;53.140;8.904;2023-04-26T07:38:26;101700.63;;;7.44;100.00
11856;BME280;5987;53.140;8.904;2023-04-26T07:41:30;101703.31;;;7.39;100.00
11856;BME280;5987;53.140;8.904;2023-04-26T07:44:34;101707.19;;;6.95;100.00
11856;BME280;5987;53.140;8.904;2023-04-26T07:47:40;101703.91;;;6.63;100.00
11856;BME280;5987;53.140;8.904;2023-04-26T07:50:43;101704.94;;;6.31;100.00
11856;BME280;5987;53.140;8.904;2023-04-26T07:53:47;101708.22;;;6.69;100.00
11856;BME280;5987;53.140;8.904;2023-04-26T07:56:52;101708.22;;;6.69;100.00
11856;BME280;5987;53.140;8.904;2023-04-26T07:59:56;101701.47;;;6.29;100.00
11856;BME280;5987;53.140;8.904;2023-04-26T08:03:01;101711.91;;;6.37;100.00
11856;BME280;5987;53.140;8.904;2023-04-26T08:06:05;101706.72;;;6.26;100.00
11856;BME280;5987;53.140;8.904;2023-04-26T08:09:10;101716.22;;;6.37;100.00
11856;BME280;5987;53.140;8.904;2023-04-26T08:12:14;101721.34;;;6.58;100.00
11856;BME280;5987;53.140;8.904;2023-04-26T08:15:17;101711.72;;;6.63;100.00
11856;BME280;5987;53.140;8.904;2023-04-26T08:18:23;101723.19;;;6.38;100.00
11856;BME280;5987;53.140;8.904;2023-04-26T08:21:27;101722.38;;;6.20;100.00
11856;BME280;5987;53.140;8.904;2023-04-26T08:24:30;101726.72;;;6.20;100.00
11856;BME280;5987;53.140;8.904;2023-04-26T08:27:34;101723.09;;;6.53;100.00
11856;BME280;5987;53.140;8.904;2023-04-26T08:30:38;101720.31;;;6.84;100.00
11856;BME280;5987;53.140;8.904;2023-04-26T08:33:43;101725.91;;;7.43;100.00
11856;BME280;5987;53.140;8.904;2023-04-26T08:36:47;101716.72;;;7.89;100.00
11856;BME280;5987;53.140;8.904;2023-04-26T08:39:51;101722.75;;;7.94;100.00
11856;BME280;5987;53.140;8.904;2023-04-26T08:42:55;101706.34;;;8.53;100.00
11856;BME280;5987;53.140;8.904;2023-04-26T08:45:59;101706.13;;;8.68;100.00
11856;BME280;5987;53.140;8.904;2023-04-26T08:49:21;101710.84;;;8.41;100.00
11856;BME280;5987;53.140;8.904;2023-04-26T08:52:30;101714.69;;;8.16;100.00
11856;BME280;5987;53.140;8.904;2023-04-26T08:55:35;101726.25;;;7.96;100.00
11856;BME280;5987;53.140;8.904;2023-04-26T08:58:40;101722.94;;;7.79;100.00
11856;BME280;5987;53.140;8.904;2023-04-26T09:01:44;101728.41;;;7.55;100.00
11856;BME280;5987;53.140;8.904;2023-04-26T09:04:50;101724.25;;;7.34;100.00
11856;BME280;5987;53.140;8.904;2023-04-26T09:07:57;101725.38;;;7.02;100.00
11856;BME280;5987;53.140;8.904;2023-04-26T09:11:03;101724.81;;;6.57;100.00
11856;BME280;5987;53.140;8.904;2023-04-26T09:14:07;101720.50;;;6.47;100.00
11856;BME280;5987;53.140;8.904;2023-04-26T09:17:25;101731.34;;;7.17;100.00
11856;BME280;5987;53.140;8.904;2023-04-26T09:20:30;101732.00;;;7.44;100.00
11856;BME280;5987;53.140;8.904;2023-04-26T09:23:34;101735.34;;;7.60;100.00
11856;BME280;5987;53.140;8.904;2023-04-26T09:26:38;101731.59;;;7.84;100.00
11856;BME280;5987;53.140;8.904;2023-04-26T09:29:58;101732.81;;;7.49;100.00
11856;BME280;5987;53.140;8.904;2023-04-26T09:33:03;101738.41;;;7.10;100.00
11856;BME280;5987;53.140;8.904;2023-04-26T09:36:12;101749.16;;;6.58;100.00
11856;BME280;5987;53.140;8.904;2023-04-26T09:39:33;101756.38;;;5.80;100.00
11856;BME280;5987;53.140;8.904;2023-04-26T09:42:38;101754.63;;;5.77;100.00
11856;BME280;5987;53.140;8.904;2023-04-26T09:45:47;101753.75;;;5.83;100.00
11856;BME280;5987;53.140;8.904;2023-04-26T09:49:00;101754.59;;;6.08;100.00
11856;BME280;5987;53.140;8.904;2023-04-26T09:52:06;101757.97;;;6.37;100.00
11856;BME280;5987;53.140;8.904;2023-04-26T09:55:10;101760.56;;;6.37;100.00
11856;BME280;5987;53.140;8.904;2023-04-26T09:58:32;101763.06;;;6.63;100.00
11856;BME280;5987;53.140;8.904;2023-04-26T10:01:36;101756.75;;;6.99;100.00
11856;BME280;5987;53.140;8.904;2023-04-26T10:04:47;101755.78;;;7.10;100.00
11856;BME280;5987;53.140;8.904;2023-04-26T10:07:52;101761.63;;;7.43;100.00
11856;BME280;5987;53.140;8.904;2023-04-26T10:10:56;101750.31;;;7.41;100.00
11856;BME280;5987;53.140;8.904;2023-04-26T10:14:00;101749.28;;;7.59;100.00
11856;BME280;5987;53.140;8.904;2023-04-26T10:17:05;101749.28;;;7.57;100.00
11856;BME280;5987;53.140;8.904;2023-04-26T10:20:12;101746.06;;;7.30;100.00
11856;BME280;5987;53.140;8.904;2023-04-26T10:23:20;101754.72;;;7.32;100.00
11856;BME280;5987;53.140;8.904;2023-04-26T10:26:47;101754.44;;;7.65;100.00
11856;BME280;5987;53.140;8.904;2023-04-26T10:30:08;101746.81;;;8.24;100.00
11856;BME280;5987;53.140;8.904;2023-04-26T10:33:11;101735.13;;;8.54;100.00
11856;BME280;5987;53.140;8.904;2023-04-26T10:36:18;101730.34;;;8.83;100.00
11856;BME280;5987;53.140;8.904;2023-04-26T10:39:24;101722.66;;;8.70;100.00
11856;BME280;5987;53.140;8.904;2023-04-26T10:42:29;101738.09;;;8.25;100.00
11856;BME280;5987;53.140;8.904;2023-04-26T10:45:34;101755.81;;;7.07;100.00
11856;BME280;5987;53.140;8.904;2023-04-26T10:48:38;101769.38;;;6.11;100.00
11856;BME280;5987;53.140;8.904;2023-04-26T10:52:13;101777.22;;;5.71;100.00
11856;BME280;5987;53.140;8.904;2023-04-26T10:55:42;101779.00;;;5.53;100.00
11856;BME280;5987;53.140;8.904;2023-04-26T10:58:46;101798.06;;;5.04;100.00
11856;BME280;5987;53.140;8.904;2023-04-26T11:01:51;101798.03;;;4.86;100.00
11856;BME280;5987;53.140;8.904;2023-04-26T11:04:56;101792.88;;;5.26;100.00
11856;BME280;5987;53.140;8.904;2023-04-26T11:08:05;101785.06;;;5.26;100.00
11856;BME280;5987;53.140;8.904;2023-04-26T11:11:12;101785.91;;;5.20;100.00
11856;BME280;5987;53.140;8.904;2023-04-26T11:14:17;101769.44;;;5.06;100.00
11856;BME280;5987;53.140;8.904;2023-04-26T11:17:21;101771.19;;;5.33;100.00
11856;BME280;5987;53.140;8.904;2023-04-26T11:20:29;101771.19;;;5.42;100.00
11856;BME280;5987;53.140;8.904;2023-04-26T11:23:34;101768.53;;;5.84;100.00
11856;BME280;5987;53.140;8.904;2023-04-26T11:26:39;101759.81;;;6.07;100.00
11856;BME280;5987;53.140;8.904;2023-04-26T11:29:43;101761.53;;;6.14;100.00
11856;BME280;5987;53.140;8.904;2023-04-26T11:32:46;101758.00;;;6.29;100.00
11856;BME280;5987;53.140;8.904;2023-04-26T11:35:54;101752.50;;;6.81;100.00
11856;BME280;5987;53.140;8.904;2023-04-26T11:38:58;101744.69;;;6.80;100.00
11856;BME280;5987;53.140;8.904;2023-04-26T11:42:09;101750.41;;;7.30;100.00
11856;BME280;5987;53.140;8.904;2023-04-26T11:45:27;101744.25;;;7.38;100.00
11856;BME280;5987;53.140;8.904;2023-04-26T11:48:33;101745.84;;;7.53;100.00
11856;BME280;5987;53.140;8.904;2023-04-26T11:51:38;101734.75;;;8.12;100.00
11856;BME280;5987;53.140;8.904;2023-04-26T11:54:42;101721.25;;;8.46;100.00
11856;BME280;5987;53.140;8.904;2023-04-26T11:57:47;101724.53;;;8.64;100.00
11856;BME280;5987;53.140;8.904;2023-04-26T12:00:56;101725.78;;;8.33;100.00
11856;BME280;5987;53.140;8.904;2023-04-26T12:04:00;101725.47;;;8.60;100.00
11856;BME280;5987;53.140;8.904;2023-04-26T12:07:04;101725.16;;;8.11;100.00
11856;BME280;5987;53.140;8.904;2023-04-26T12:10:16;101751.47;;;8.02;100.00
11856;BME280;5987;53.140;8.904;2023-04-26T12:13:21;101758.59;;;6.85;100.00
11856;BME280;5987;53.140;8.904;2023-04-26T12:16:27;101785.94;;;5.48;100.00
11856;BME280;5987;53.140;8.904;2023-04-26T12:19:32;101797.22;;;5.38;100.00
11856;BME280;5987;53.140;8.904;2023-04-26T12:22:36;101793.75;;;5.37;100.00
11856;BME280;5987;53.140;8.904;2023-04-26T12:25:51;101784.22;;;5.64;100.00
11856;BME280;5987;53.140;8.904;2023-04-26T12:28:57;101776.34;;;5.99;100.00
11856;BME280;5987;53.140;8.904;2023-04-26T12:32:01;101783.25;;;6.19;100.00
11856;BME280;5987;53.140;8.904;2023-04-26T12:35:06;101780.56;;;6.39;100.00
11856;BME280;5987;53.140;8.904;2023-04-26T12:38:10;101776.13;;;6.55;100.00
11856;BME280;5987;53.140;8.904;2023-04-26T12:41:15;101774.41;;;6.54;100.00
11856;BME280;5987;53.140;8.904;2023-04-26T12:44:20;101769.66;;;7.16;100.00
11856;BME280;5987;53.140;8.904;2023-04-26T12:47:25;101764.38;;;7.22;100.00
11856;BME280;5987;53.140;8.904;2023-04-26T12:50:29;101765.16;;;7.35;100.00
11856;BME280;5987;53.140;8.904;2023-04-26T12:53:32;101761.72;;;7.30;100.00
11856;BME280;5987;53.140;8.904;2023-04-26T12:56:36;101761.38;;;7.67;100.00
11856;BME280;5987;53.140;8.904;2023-04-26T12:59:46;101755.34;;;7.61;100.00
11856;BME280;5987;53.140;8.904;2023-04-26T13:02:50;101747.16;;;7.93;100.00
11856;BME280;5987;53.140;8.904;2023-04-26T13:05:54;101751.91;;;8.36;100.00
11856;BME280;5987;53.140;8.904;2023-04-26T13:08:57;101771.03;;;7.64;100.00
11856;BME280;5987;53.140;8.904;2023-04-26T13:12:01;101761.69;;;7.33;100.00
11856;BME280;5987;53.140;8.904;2023-04-26T13:15:08;101782.16;;;6.65;100.00
11856;BME280;5987;53.140;8.904;2023-04-26T13:18:12;101797.22;;;5.59;100.00
11856;BME280;5987;53.140;8.904;2023-04-26T13:21:17;101805.88;;;5.18;100.00
11856;BME280;5987;53.140;8.904;2023-04-26T13:24:21;101805.00;;;5.05;100.00
11856;BME280;5987;53.140;8.904;2023-04-26T13:27:25;101797.19;;;5.10;100.00
11856;BME280;5987;53.140;8.904;2023-04-26T13:30:34;101794.63;;;5.50;100.00
11856;BME280;5987;53.140;8.904;2023-04-26T13:33:37;101791.13;;;5.88;100.00
11856;BME280;5987;53.140;8.904;2023-04-26T13:36:41;101791.97;;;6.03;100.00
11856;BME280;5987;53.140;8.904;2023-04-26T13:39:45;101796.25;;;6.28;100.00
11856;BME280;5987;53.140;8.904;2023-04-26T13:42:49;101794.38;;;6.61;100.00
11856;BME280;5987;53.140;8.904;2023-04-26T13:45:54;101791.59;;;6.92;100.00
11856;BME280;5987;53.140;8.904;2023-04-26T13:48:58;101793.91;;;7.34;100.00
11856;BME280;5987;53.140;8.904;2023-04-26T13:52:01;101793.75;;;7.54;100.00
11856;BME280;5987;53.140;8.904;2023-04-26T13:55:07;101789.31;;;7.62;100.00
11856;BME280;5987;53.140;8.904;2023-04-26T13:58:11;101779.41;;;7.97;100.00
11856;BME280;5987;53.140;8.904;2023-04-26T14:01:16;101775.91;;;7.98;100.00
11856;BME280;5987;53.140;8.904;2023-04-26T14:04:20;101778.53;;;7.96;100.00
11856;BME280;5987;53.140;8.904;2023-04-26T14:07:24;101782.06;;;7.92;100.00
11856;BME280;5987;53.140;8.904;2023-04-26T14:10:28;101776.84;;;7.92;100.00
11856;BME280;5987;53.140;8.904;2023-04-26T14:13:32;101777.28;;;7.46;100.00
11856;BME280;5987;53.140;8.904;2023-04-26T14:16:37;101782.25;;;7.70;100.00
11856;BME280;5987;53.140;8.904;2023-04-26T14:19:41;101781.75;;;7.33;100.00
11856;BME280;5987;53.140;8.904;2023-04-26T14:22:45;101789.75;;;7.07;100.00
11856;BME280;5987;53.140;8.904;2023-04-26T14:25:51;101795.97;;;6.87;100.00
11856;BME280;5987;53.140;8.904;2023-04-26T14:28:54;101800.25;;;7.02;100.00
11856;BME280;5987;53.140;8.904;2023-04-26T14:31:59;101806.31;;;7.06;100.00
11856;BME280;5987;53.140;8.904;2023-04-26T14:35:05;101798.44;;;7.12;100.00
11856;BME280;5987;53.140;8.904;2023-04-26T14:38:09;101808.63;;;7.46;100.00
11856;BME280;5987;53.140;8.904;2023-04-26T14:41:16;101801.53;;;7.60;100.00
11856;BME280;5987;53.140;8.904;2023-04-26T14:44:22;101809.44;;;7.51;100.00
11856;BME280;5987;53.140;8.904;2023-04-26T14:47:27;101799.78;;;7.59;100.00
11856;BME280;5987;53.140;8.904;2023-04-26T14:50:31;101802.38;;;7.64;100.00
11856;BME280;5987;53.140;8.904;2023-04-26T14:53:35;101814.56;;;7.63;100.00
11856;BME280;5987;53.140;8.904;2023-04-26T14:56:39;101801.91;;;7.14;100.00
11856;BME280;5987;53.140;8.904;2023-04-26T14:59:43;101814.19;;;6.99;100.00
11856;BME280;5987;53.140;8.904;2023-04-26T15:02:48;101810.88;;;6.71;100.00
11856;BME280;5987;53.140;8.904;2023-04-26T15:05:52;101816.09;;;6.63;100.00
11856;BME280;5987;53.140;8.904;2023-04-26T15:08:56;101816.97;;;6.67;100.00
11856;BME280;5987;53.140;8.904;2023-04-26T15:12:00;101814.31;;;6.72;100.00
11856;BME280;5987;53.140;8.904;2023-04-26T15:15:07;101818.56;;;6.91;100.00
11856;BME280;5987;53.140;8.904;2023-04-26T15:18:12;101816.00;;;6.86;100.00
11856;BME280;5987;53.140;8.904;2023-04-26T15:21:16;101814.22;;;6.96;100.00
11856;BME280;5987;53.140;8.904;2023-04-26T15:24:19;101818.47;;;7.10;100.00
11856;BME280;5987;53.140;8.904;2023-04-26T15:27:23;101814.09;;;7.09;100.00
11856;BME280;5987;53.140;8.904;2023-04-26T15:30:27;101818.53;;;7.00;100.00
11856;BME280;5987;53.140;8.904;2023-04-26T15:33:33;101810.78;;;6.80;100.00
11856;BME280;5987;53.140;8.904;2023-04-26T15:36:37;101816.00;;;6.85;100.00
11856;BME280;5987;53.140;8.904;2023-04-26T15:39:42;101817.66;;;6.98;100.00
11856;BME280;5987;53.140;8.904;2023-04-26T15:42:45;101809.81;;;7.00;100.00
11856;BME280;5987;53.140;8.904;2023-04-26T15:45:50;101812.47;;;6.89;100.00
11856;BME280;5987;53.140;8.904;2023-04-26T15:48:55;101814.97;;;7.12;100.00
11856;BME280;5987;53.140;8.904;2023-04-26T15:51:58;101810.66;;;7.05;100.00
11856;BME280;5987;53.140;8.904;2023-04-26T15:55:04;101815.03;;;7.06;100.00
11856;BME280;5987;53.140;8.904;2023-04-26T15:58:08;101810.69;;;7.03;100.00
11856;BME280;5987;53.140;8.904;2023-04-26T16:01:12;101807.13;;;7.14;100.00
11856;BME280;5987;53.140;8.904;2023-04-26T16:04:18;101815.88;;;7.08;100.00
11856;BME280;5987;53.140;8.904;2023-04-26T16:07:23;101815.03;;;7.06;100.00
11856;BME280;5987;53.140;8.904;2023-04-26T16:10:26;101810.69;;;6.99;100.00
11856;BME280;5987;53.140;8.904;2023-04-26T16:13:30;101819.47;;;6.87;100.00
11856;BME280;5987;53.140;8.904;2023-04-26T16:16:35;101816.84;;;6.95;100.00
11856;BME280;5987;53.140;8.904;2023-04-26T16:19:40;101816.91;;;6.81;100.00
11856;BME280;5987;53.140;8.904;2023-04-26T16:22:44;101814.25;;;6.87;100.00